sensor_id;sensor_type;location;lat;lon;timestamp;temperature;humidity
4374;DHT22;2201;51.100;6.814;2023-06-19T00:00:19;23.70;88.50
4374;DHT22;2201;51.100;6.814;2023-06-19T00:02:46;23.70;88.50
4374;DHT22;2201;51.100;6.814;2023-06-19T00:05:13;23.70;88.40
4374;DHT22;2201;51.100;6.814;2023-06-19T00:07:41;23.70;87.90
4374;DHT22;2201;51.100;6.814;2023-06-19T00:10:08;23.70;88.50
4374;DHT22;2201;51.100;6.814;2023-06-19T00:12:35;23.70;88.30
4374;DHT22;2201;51.100;6.814;2023-06-19T00:15:02;23.60;87.90
4374;DHT22;2201;51.100;6.814;2023-06-19T00:17:29;23.60;87.80
4374;DHT22;2201;51.100;6.814;2023-06-19T00:19:56;23.60;88.00
4374;DHT22;2201;51.100;6.814;2023-06-19T00:22:24;23.60;88.10
4374;DHT22;2201;51.100;6.814;2023-06-19T00:24:52;23.50;88.70
4374;DHT22;2201;51.100;6.814;2023-06-19T00:27:22;23.50;88.70
4374;DHT22;2201;51.100;6.814;2023-06-19T00:29:50;23.50;88.70
4374;DHT22;2201;51.100;6.814;2023-06-19T00:32:16;23.40;89.10
4374;DHT22;2201;51.100;6.814;2023-06-19T00:34:45;23.40;89.90
4374;DHT22;2201;51.100;6.814;2023-06-19T00:37:12;23.30;88.90
4374;DHT22;2201;51.100;6.814;2023-06-19T00:39:39;23.30;89.60
4374;DHT22;2201;51.100;6.814;2023-06-19T00:42:08;23.20;89.70
4374;DHT22;2201;51.100;6.814;2023-06-19T00:44:34;23.20;89.90
4374;DHT22;2201;51.100;6.814;2023-06-19T00:47:02;23.10;90.10
4374;DHT22;2201;51.100;6.814;2023-06-19T00:49:31;23.10;90.10
4374;DHT22;2201;51.100;6.814;2023-06-19T00:51:58;23.10;89.60
4374;DHT22;2201;51.100;6.814;2023-06-19T00:54:25;23.00;90.30
4374;DHT22;2201;51.100;6.814;2023-06-19T00:56:52;23.00;90.20
4374;DHT22;2201;51.100;6.814;2023-06-19T00:59:20;23.00;90.00
4374;DHT22;2201;51.100;6.814;2023-06-19T01:01:47;23.00;90.30
4374;DHT22;2201;51.100;6.814;2023-06-19T01:04:14;23.00;90.40
4374;DHT22;2201;51.100;6.814;2023-06-19T01:06:46;23.00;90.30
4374;DHT22;2201;51.100;6.814;2023-06-19T01:09:18;23.00;90.60
4374;DHT22;2201;51.100;6.814;2023-06-19T01:11:50;23.00;90.30
4374;DHT22;2201;51.100;6.814;2023-06-19T01:14:21;23.00;90.20
4374;DHT22;2201;51.100;6.814;2023-06-19T01:16:48;22.90;89.80
4374;DHT22;2201;51.100;6.814;2023-06-19T01:19:18;22.90;90.40
4374;DHT22;2201;51.100;6.814;2023-06-19T01:21:45;22.90;90.00
4374;DHT22;2201;51.100;6.814;2023-06-19T01:24:14;22.90;90.20
4374;DHT22;2201;51.100;6.814;2023-06-19T01:26:41;22.80;90.80
4374;DHT22;2201;51.100;6.814;2023-06-19T01:29:11;22.80;90.20
4374;DHT22;2201;51.100;6.814;2023-06-19T01:31:45;22.80;90.30
4374;DHT22;2201;51.100;6.814;2023-06-19T01:34:15;22.70;90.10
4374;DHT22;2201;51.100;6.814;2023-06-19T01:36:43;22.70;89.90
4374;DHT22;2201;51.100;6.814;2023-06-19T01:39:13;22.70;91.10
4374;DHT22;2201;51.100;6.814;2023-06-19T01:41:41;22.60;90.80
4374;DHT22;2201;51.100;6.814;2023-06-19T01:44:09;22.60;91.60
4374;DHT22;2201;51.100;6.814;2023-06-19T01:46:36;22.50;91.60
4374;DHT22;2201;51.100;6.814;2023-06-19T01:49:06;22.50;91.40
4374;DHT22;2201;51.100;6.814;2023-06-19T01:51:33;22.50;91.70
4374;DHT22;2201;51.100;6.814;2023-06-19T01:53:59;22.50;92.10
4374;DHT22;2201;51.100;6.814;2023-06-19T01:56:28;22.50;91.90
4374;DHT22;2201;51.100;6.814;2023-06-19T01:58:54;22.50;92.30
4374;DHT22;2201;51.100;6.814;2023-06-19T02:01:21;22.50;92.40
4374;DHT22;2201;51.100;6.814;2023-06-19T02:03:48;22.60;91.60
4374;DHT22;2201;51.100;6.814;2023-06-19T02:06:15;22.60;92.60
4374;DHT22;2201;51.100;6.814;2023-06-19T02:08:42;22.60;92.20
4374;DHT22;2201;51.100;6.814;2023-06-19T02:11:09;22.60;92.50
4374;DHT22;2201;51.100;6.814;2023-06-19T02:13:37;22.60;92.30
4374;DHT22;2201;51.100;6.814;2023-06-19T02:16:04;22.70;93.00
4374;DHT22;2201;51.100;6.814;2023-06-19T02:18:30;22.70;93.10
4374;DHT22;2201;51.100;6.814;2023-06-19T02:20:58;22.70;93.30
4374;DHT22;2201;51.100;6.814;2023-06-19T02:23:25;22.70;92.50
4374;DHT22;2201;51.100;6.814;2023-06-19T02:25:51;22.70;92.30
4374;DHT22;2201;51.100;6.814;2023-06-19T02:28:18;22.80;93.60
4374;DHT22;2201;51.100;6.814;2023-06-19T02:30:46;22.70;92.60
4374;DHT22;2201;51.100;6.814;2023-06-19T02:33:13;22.80;92.10
4374;DHT22;2201;51.100;6.814;2023-06-19T02:35:40;22.80;92.30
4374;DHT22;2201;51.100;6.814;2023-06-19T02:38:07;22.80;92.20
4374;DHT22;2201;51.100;6.814;2023-06-19T02:40:34;22.90;92.20
4374;DHT22;2201;51.100;6.814;2023-06-19T02:43:01;22.90;91.90
4374;DHT22;2201;51.100;6.814;2023-06-19T02:45:28;22.90;92.10
4374;DHT22;2201;51.100;6.814;2023-06-19T02:47:56;22.90;92.00
4374;DHT22;2201;51.100;6.814;2023-06-19T02:50:23;22.90;92.20
4374;DHT22;2201;51.100;6.814;2023-06-19T02:52:49;22.90;91.70
4374;DHT22;2201;51.100;6.814;2023-06-19T02:55:16;22.80;91.90
4374;DHT22;2201;51.100;6.814;2023-06-19T02:57:43;22.80;92.20
4374;DHT22;2201;51.100;6.814;2023-06-19T03:00:11;22.70;92.30
4374;DHT22;2201;51.100;6.814;2023-06-19T03:02:38;22.70;92.60
4374;DHT22;2201;51.100;6.814;2023-06-19T03:05:11;22.60;92.30
4374;DHT22;2201;51.100;6.814;2023-06-19T03:07:40;22.50;92.50
4374;DHT22;2201;51.100;6.814;2023-06-19T03:10:07;22.50;92.60
4374;DHT22;2201;51.100;6.814;2023-06-19T03:12:34;22.40;92.60
4374;DHT22;2201;51.100;6.814;2023-06-19T03:15:01;22.40;92.60
4374;DHT22;2201;51.100;6.814;2023-06-19T03:17:27;22.40;93.40
4374;DHT22;2201;51.100;6.814;2023-06-19T03:19:54;22.40;93.30
4374;DHT22;2201;51.100;6.814;2023-06-19T03:22:22;22.30;93.10
4374;DHT22;2201;51.100;6.814;2023-06-19T03:24:49;22.30;94.60
4374;DHT22;2201;51.100;6.814;2023-06-19T03:27:16;22.20;94.90
4374;DHT22;2201;51.100;6.814;2023-06-19T03:29:43;22.10;95.10
4374;DHT22;2201;51.100;6.814;2023-06-19T03:32:09;22.00;95.10
4374;DHT22;2201;51.100;6.814;2023-06-19T03:34:36;22.00;95.00
4374;DHT22;2201;51.100;6.814;2023-06-19T03:37:03;22.00;95.70
4374;DHT22;2201;51.100;6.814;2023-06-19T03:39:32;21.90;95.40
4374;DHT22;2201;51.100;6.814;2023-06-19T03:41:58;21.90;95.70
4374;DHT22;2201;51.100;6.814;2023-06-19T03:44:25;21.80;95.50
4374;DHT22;2201;51.100;6.814;2023-06-19T03:46:52;21.80;95.70
4374;DHT22;2201;51.100;6.814;2023-06-19T03:49:19;21.80;95.70
4374;DHT22;2201;51.100;6.814;2023-06-19T03:51:45;21.80;96.40
4374;DHT22;2201;51.100;6.814;2023-06-19T03:54:12;21.80;96.60
4374;DHT22;2201;51.100;6.814;2023-06-19T03:56:40;21.70;97.10
4374;DHT22;2201;51.100;6.814;2023-06-19T03:59:07;21.70;97.10
4374;DHT22;2201;51.100;6.814;2023-06-19T04:01:34;21.70;97.10
4374;DHT22;2201;51.100;6.814;2023-06-19T04:04:01;21.70;97.30
4374;DHT22;2201;51.100;6.814;2023-06-19T04:06:27;21.70;97.40
4374;DHT22;2201;51.100;6.814;2023-06-19T04:08:56;21.70;97.50
4374;DHT22;2201;51.100;6.814;2023-06-19T04:11:23;21.70;97.50
4374;DHT22;2201;51.100;6.814;2023-06-19T04:13:51;21.70;97.50
4374;DHT22;2201;51.100;6.814;2023-06-19T04:16:17;21.60;97.50
4374;DHT22;2201;51.100;6.814;2023-06-19T04:18:45;21.60;97.90
4374;DHT22;2201;51.100;6.814;2023-06-19T04:21:14;21.70;97.70
4374;DHT22;2201;51.100;6.814;2023-06-19T04:23:41;21.70;98.10
4374;DHT22;2201;51.100;6.814;2023-06-19T04:26:08;21.80;97.80
4374;DHT22;2201;51.100;6.814;2023-06-19T04:28:34;21.80;97.80
4374;DHT22;2201;51.100;6.814;2023-06-19T04:31:02;21.80;97.70
4374;DHT22;2201;51.100;6.814;2023-06-19T04:33:29;21.90;97.40
4374;DHT22;2201;51.100;6.814;2023-06-19T04:35:56;21.90;97.30
4374;DHT22;2201;51.100;6.814;2023-06-19T04:38:23;21.90;97.20
4374;DHT22;2201;51.100;6.814;2023-06-19T04:40:50;22.00;97.60
4374;DHT22;2201;51.100;6.814;2023-06-19T04:43:17;22.00;97.80
4374;DHT22;2201;51.100;6.814;2023-06-19T04:45:44;22.00;97.30
4374;DHT22;2201;51.100;6.814;2023-06-19T04:48:12;22.10;97.20
4374;DHT22;2201;51.100;6.814;2023-06-19T04:50:41;22.10;97.40
4374;DHT22;2201;51.100;6.814;2023-06-19T04:53:08;22.10;97.70
4374;DHT22;2201;51.100;6.814;2023-06-19T04:55:35;22.20;97.10
4374;DHT22;2201;51.100;6.814;2023-06-19T04:58:03;22.20;97.10
4374;DHT22;2201;51.100;6.814;2023-06-19T05:00:29;22.40;97.70
4374;DHT22;2201;51.100;6.814;2023-06-19T05:02:56;22.50;97.70
4374;DHT22;2201;51.100;6.814;2023-06-19T05:05:27;22.60;96.70
4374;DHT22;2201;51.100;6.814;2023-06-19T05:07:54;22.70;96.40
4374;DHT22;2201;51.100;6.814;2023-06-19T05:10:21;22.70;96.30
4374;DHT22;2201;51.100;6.814;2023-06-19T05:12:47;22.70;96.60
4374;DHT22;2201;51.100;6.814;2023-06-19T05:15:14;22.60;96.90
4374;DHT22;2201;51.100;6.814;2023-06-19T05:17:41;22.50;97.20
4374;DHT22;2201;51.100;6.814;2023-06-19T05:20:09;22.40;96.90
4374;DHT22;2201;51.100;6.814;2023-06-19T05:22:38;22.40;97.50
4374;DHT22;2201;51.100;6.814;2023-06-19T05:25:06;22.40;97.40
4374;DHT22;2201;51.100;6.814;2023-06-19T05:27:33;22.40;97.50
4374;DHT22;2201;51.100;6.814;2023-06-19T05:29:59;22.40;97.60
4374;DHT22;2201;51.100;6.814;2023-06-19T05:32:26;22.40;97.90
4374;DHT22;2201;51.100;6.814;2023-06-19T05:34:53;22.60;97.70
4374;DHT22;2201;51.100;6.814;2023-06-19T05:37:23;22.60;96.70
4374;DHT22;2201;51.100;6.814;2023-06-19T05:39:51;22.80;96.00
4374;DHT22;2201;51.100;6.814;2023-06-19T05:42:17;23.00;94.80
4374;DHT22;2201;51.100;6.814;2023-06-19T05:44:44;23.20;94.20
4374;DHT22;2201;51.100;6.814;2023-06-19T05:47:11;23.40;93.60
4374;DHT22;2201;51.100;6.814;2023-06-19T05:49:38;23.50;92.70
4374;DHT22;2201;51.100;6.814;2023-06-19T05:52:07;23.70;91.40
4374;DHT22;2201;51.100;6.814;2023-06-19T05:54:34;23.70;91.30
4374;DHT22;2201;51.100;6.814;2023-06-19T05:57:02;23.70;91.00
4374;DHT22;2201;51.100;6.814;2023-06-19T05:59:29;23.60;91.00
4374;DHT22;2201;51.100;6.814;2023-06-19T06:01:56;23.50;91.20
4374;DHT22;2201;51.100;6.814;2023-06-19T06:04:23;23.50;91.30
4374;DHT22;2201;51.100;6.814;2023-06-19T06:06:52;23.50;91.50
4374;DHT22;2201;51.100;6.814;2023-06-19T06:09:22;23.50;91.60
4374;DHT22;2201;51.100;6.814;2023-06-19T06:11:49;23.50;91.40
4374;DHT22;2201;51.100;6.814;2023-06-19T06:14:17;23.60;91.10
4374;DHT22;2201;51.100;6.814;2023-06-19T06:16:43;23.60;91.20
4374;DHT22;2201;51.100;6.814;2023-06-19T06:19:10;23.60;91.20
4374;DHT22;2201;51.100;6.814;2023-06-19T06:21:37;23.70;91.60
4374;DHT22;2201;51.100;6.814;2023-06-19T06:24:05;23.80;91.30
4374;DHT22;2201;51.100;6.814;2023-06-19T06:26:32;23.90;91.30
4374;DHT22;2201;51.100;6.814;2023-06-19T06:29:00;24.10;91.30
4374;DHT22;2201;51.100;6.814;2023-06-19T06:31:28;24.20;90.50
4374;DHT22;2201;51.100;6.814;2023-06-19T06:33:55;24.40;90.50
4374;DHT22;2201;51.100;6.814;2023-06-19T06:36:22;24.60;89.90
4374;DHT22;2201;51.100;6.814;2023-06-19T06:38:50;24.70;89.50
4374;DHT22;2201;51.100;6.814;2023-06-19T06:41:17;24.70;88.90
4374;DHT22;2201;51.100;6.814;2023-06-19T06:43:44;24.70;89.20
4374;DHT22;2201;51.100;6.814;2023-06-19T06:46:10;24.70;89.20
4374;DHT22;2201;51.100;6.814;2023-06-19T06:48:39;24.60;89.30
4374;DHT22;2201;51.100;6.814;2023-06-19T06:51:06;24.60;89.60
4374;DHT22;2201;51.100;6.814;2023-06-19T06:53:34;24.60;89.70
4374;DHT22;2201;51.100;6.814;2023-06-19T06:56:01;24.60;89.90
4374;DHT22;2201;51.100;6.814;2023-06-19T06:58:28;24.60;89.90
4374;DHT22;2201;51.100;6.814;2023-06-19T07:00:55;24.60;90.20
4374;DHT22;2201;51.100;6.814;2023-06-19T07:03:24;24.70;89.90
4374;DHT22;2201;51.100;6.814;2023-06-19T07:05:52;24.70;90.30
4374;DHT22;2201;51.100;6.814;2023-06-19T07:08:19;24.60;90.30
4374;DHT22;2201;51.100;6.814;2023-06-19T07:10:46;24.50;90.20
4374;DHT22;2201;51.100;6.814;2023-06-19T07:13:13;24.60;90.30
4374;DHT22;2201;51.100;6.814;2023-06-19T07:15:40;24.60;90.40
4374;DHT22;2201;51.100;6.814;2023-06-19T07:18:07;24.60;90.20
4374;DHT22;2201;51.100;6.814;2023-06-19T07:20:34;24.70;90.10
4374;DHT22;2201;51.100;6.814;2023-06-19T07:23:02;24.70;90.20
4374;DHT22;2201;51.100;6.814;2023-06-19T07:25:29;24.80;89.90
4374;DHT22;2201;51.100;6.814;2023-06-19T07:27:59;24.80;89.90
4374;DHT22;2201;51.100;6.814;2023-06-19T07:30:26;24.80;89.70
4374;DHT22;2201;51.100;6.814;2023-06-19T07:32:53;24.80;89.50
4374;DHT22;2201;51.100;6.814;2023-06-19T07:35:20;24.70;89.50
4374;DHT22;2201;51.100;6.814;2023-06-19T07:37:47;24.70;89.70
4374;DHT22;2201;51.100;6.814;2023-06-19T07:40:15;24.60;90.00
4374;DHT22;2201;51.100;6.814;2023-06-19T07:42:42;24.50;90.00
4374;DHT22;2201;51.100;6.814;2023-06-19T07:45:11;24.50;90.80
4374;DHT22;2201;51.100;6.814;2023-06-19T07:47:38;24.40;91.20
4374;DHT22;2201;51.100;6.814;2023-06-19T07:50:06;24.50;91.70
4374;DHT22;2201;51.100;6.814;2023-06-19T07:52:33;24.40;91.90
4374;DHT22;2201;51.100;6.814;2023-06-19T07:55:00;24.40;92.00
4374;DHT22;2201;51.100;6.814;2023-06-19T07:57:31;24.40;92.30
4374;DHT22;2201;51.100;6.814;2023-06-19T07:59:58;24.40;92.20
4374;DHT22;2201;51.100;6.814;2023-06-19T08:02:25;24.50;92.10
4374;DHT22;2201;51.100;6.814;2023-06-19T08:04:53;24.60;91.90
4374;DHT22;2201;51.100;6.814;2023-06-19T08:07:20;24.60;91.30
4374;DHT22;2201;51.100;6.814;2023-06-19T08:09:46;24.60;90.70
4374;DHT22;2201;51.100;6.814;2023-06-19T08:12:14;24.70;90.80
4374;DHT22;2201;51.100;6.814;2023-06-19T08:14:42;24.80;90.60
4374;DHT22;2201;51.100;6.814;2023-06-19T08:17:09;24.90;90.10
4374;DHT22;2201;51.100;6.814;2023-06-19T08:19:36;25.00;90.30
4374;DHT22;2201;51.100;6.814;2023-06-19T08:22:05;25.20;90.10
4374;DHT22;2201;51.100;6.814;2023-06-19T08:24:32;25.50;90.10
4374;DHT22;2201;51.100;6.814;2023-06-19T08:26:58;25.80;89.80
4374;DHT22;2201;51.100;6.814;2023-06-19T08:29:25;26.30;88.60
4374;DHT22;2201;51.100;6.814;2023-06-19T08:31:53;26.60;87.30
4374;DHT22;2201;51.100;6.814;2023-06-19T08:34:20;26.90;85.90
4374;DHT22;2201;51.100;6.814;2023-06-19T08:36:47;27.10;86.20
4374;DHT22;2201;51.100;6.814;2023-06-19T08:39:14;27.40;85.20
4374;DHT22;2201;51.100;6.814;2023-06-19T08:41:42;27.70;83.40
4374;DHT22;2201;51.100;6.814;2023-06-19T08:44:09;28.00;83.90
4374;DHT22;2201;51.100;6.814;2023-06-19T08:46:36;28.20;81.90
4374;DHT22;2201;51.100;6.814;2023-06-19T08:49:04;28.30;80.80
4374;DHT22;2201;51.100;6.814;2023-06-19T08:51:32;28.20;81.00
4374;DHT22;2201;51.100;6.814;2023-06-19T08:54:04;28.30;81.80
4374;DHT22;2201;51.100;6.814;2023-06-19T08:56:32;28.50;80.80
4374;DHT22;2201;51.100;6.814;2023-06-19T08:59:08;28.60;80.00
4374;DHT22;2201;51.100;6.814;2023-06-19T09:01:36;28.60;80.20
4374;DHT22;2201;51.100;6.814;2023-06-19T09:04:10;28.60;78.40
4374;DHT22;2201;51.100;6.814;2023-06-19T09:06:48;28.50;79.20
4374;DHT22;2201;51.100;6.814;2023-06-19T09:09:15;28.50;78.90
4374;DHT22;2201;51.100;6.814;2023-06-19T09:11:42;28.60;78.90
4374;DHT22;2201;51.100;6.814;2023-06-19T09:14:10;28.70;77.10
4374;DHT22;2201;51.100;6.814;2023-06-19T09:16:38;28.80;77.50
4374;DHT22;2201;51.100;6.814;2023-06-19T09:19:06;28.90;77.70
4374;DHT22;2201;51.100;6.814;2023-06-19T09:21:35;28.90;77.60
4374;DHT22;2201;51.100;6.814;2023-06-19T09:24:04;28.70;77.60
4374;DHT22;2201;51.100;6.814;2023-06-19T09:26:31;28.60;77.60
4374;DHT22;2201;51.100;6.814;2023-06-19T09:28:58;28.50;78.40
4374;DHT22;2201;51.100;6.814;2023-06-19T09:31:32;28.40;77.30
4374;DHT22;2201;51.100;6.814;2023-06-19T09:33:59;28.40;78.10
4374;DHT22;2201;51.100;6.814;2023-06-19T09:36:26;28.60;77.60
4374;DHT22;2201;51.100;6.814;2023-06-19T09:38:55;28.70;77.30
4374;DHT22;2201;51.100;6.814;2023-06-19T09:41:24;28.80;77.10
4374;DHT22;2201;51.100;6.814;2023-06-19T09:43:54;28.60;77.50
4374;DHT22;2201;51.100;6.814;2023-06-19T09:46:29;28.60;78.20
4374;DHT22;2201;51.100;6.814;2023-06-19T09:48:58;28.40;78.10
4374;DHT22;2201;51.100;6.814;2023-06-19T09:51:30;28.30;78.70
4374;DHT22;2201;51.100;6.814;2023-06-19T09:53:59;28.50;78.70
4374;DHT22;2201;51.100;6.814;2023-06-19T09:56:29;28.80;77.50
4374;DHT22;2201;51.100;6.814;2023-06-19T09:58:58;29.00;75.80
4374;DHT22;2201;51.100;6.814;2023-06-19T10:01:27;29.00;75.80
4374;DHT22;2201;51.100;6.814;2023-06-19T10:04:05;29.00;76.00
4374;DHT22;2201;51.100;6.814;2023-06-19T10:06:32;28.90;76.50
4374;DHT22;2201;51.100;6.814;2023-06-19T10:09:08;29.10;76.90
4374;DHT22;2201;51.100;6.814;2023-06-19T10:11:46;29.40;75.20
4374;DHT22;2201;51.100;6.814;2023-06-19T10:14:13;29.80;73.20
4374;DHT22;2201;51.100;6.814;2023-06-19T10:16:40;30.10;73.00
4374;DHT22;2201;51.100;6.814;2023-06-19T10:19:11;30.40;71.80
4374;DHT22;2201;51.100;6.814;2023-06-19T10:21:45;30.60;70.50
4374;DHT22;2201;51.100;6.814;2023-06-19T10:24:16;30.90;71.20
4374;DHT22;2201;51.100;6.814;2023-06-19T10:26:55;31.20;70.30
4374;DHT22;2201;51.100;6.814;2023-06-19T10:29:22;31.50;69.30
4374;DHT22;2201;51.100;6.814;2023-06-19T10:31:50;31.60;69.80
4374;DHT22;2201;51.100;6.814;2023-06-19T10:34:17;31.80;68.80
4374;DHT22;2201;51.100;6.814;2023-06-19T10:36:43;32.00;69.00
4374;DHT22;2201;51.100;6.814;2023-06-19T10:39:10;32.20;67.40
4374;DHT22;2201;51.100;6.814;2023-06-19T10:41:40;32.30;67.50
4374;DHT22;2201;51.100;6.814;2023-06-19T10:44:08;32.30;68.00
4374;DHT22;2201;51.100;6.814;2023-06-19T10:46:38;32.40;66.90
4374;DHT22;2201;51.100;6.814;2023-06-19T10:49:07;32.30;67.10
4374;DHT22;2201;51.100;6.814;2023-06-19T10:51:36;32.30;67.10
4374;DHT22;2201;51.100;6.814;2023-06-19T10:54:03;32.20;67.30
4374;DHT22;2201;51.100;6.814;2023-06-19T10:56:30;32.20;66.60
4374;DHT22;2201;51.100;6.814;2023-06-19T10:59:00;32.20;67.00
4374;DHT22;2201;51.100;6.814;2023-06-19T11:01:34;32.10;66.20
4374;DHT22;2201;51.100;6.814;2023-06-19T11:04:03;32.20;66.60
4374;DHT22;2201;51.100;6.814;2023-06-19T11:06:31;32.30;65.80
4374;DHT22;2201;51.100;6.814;2023-06-19T11:08:58;32.40;66.40
4374;DHT22;2201;51.100;6.814;2023-06-19T11:11:37;32.40;66.00
4374;DHT22;2201;51.100;6.814;2023-06-19T11:14:06;32.50;66.00
4374;DHT22;2201;51.100;6.814;2023-06-19T11:16:34;32.60;64.90
4374;DHT22;2201;51.100;6.814;2023-06-19T11:19:01;32.60;66.20
4374;DHT22;2201;51.100;6.814;2023-06-19T11:21:31;32.60;65.80
4374;DHT22;2201;51.100;6.814;2023-06-19T11:24:00;32.60;66.20
4374;DHT22;2201;51.100;6.814;2023-06-19T11:26:27;33.00;65.70
4374;DHT22;2201;51.100;6.814;2023-06-19T11:28:54;33.20;63.90
4374;DHT22;2201;51.100;6.814;2023-06-19T11:31:26;33.30;64.20
4374;DHT22;2201;51.100;6.814;2023-06-19T11:33:58;33.20;63.40
4374;DHT22;2201;51.100;6.814;2023-06-19T11:36:27;33.30;64.30
4374;DHT22;2201;51.100;6.814;2023-06-19T11:38:55;33.50;64.40
4374;DHT22;2201;51.100;6.814;2023-06-19T11:41:27;33.70;64.20
4374;DHT22;2201;51.100;6.814;2023-06-19T11:44:00;33.70;62.70
4374;DHT22;2201;51.100;6.814;2023-06-19T11:46:32;33.90;62.20
4374;DHT22;2201;51.100;6.814;2023-06-19T11:49:10;34.00;62.50
4374;DHT22;2201;51.100;6.814;2023-06-19T11:51:38;34.00;61.90
4374;DHT22;2201;51.100;6.814;2023-06-19T11:54:07;34.10;62.10
4374;DHT22;2201;51.100;6.814;2023-06-19T11:56:34;34.10;60.90
4374;DHT22;2201;51.100;6.814;2023-06-19T11:59:01;34.00;61.10
4374;DHT22;2201;51.100;6.814;2023-06-19T12:01:28;34.20;61.40
4374;DHT22;2201;51.100;6.814;2023-06-19T12:03:57;34.30;61.60
4374;DHT22;2201;51.100;6.814;2023-06-19T12:06:26;34.40;60.80
4374;DHT22;2201;51.100;6.814;2023-06-19T12:08:53;34.40;59.30
4374;DHT22;2201;51.100;6.814;2023-06-19T12:11:20;34.40;60.50
4374;DHT22;2201;51.100;6.814;2023-06-19T12:13:47;34.60;60.60
4374;DHT22;2201;51.100;6.814;2023-06-19T12:16:14;34.70;60.50
4374;DHT22;2201;51.100;6.814;2023-06-19T12:18:41;34.50;61.20
4374;DHT22;2201;51.100;6.814;2023-06-19T12:21:10;34.40;60.60
4374;DHT22;2201;51.100;6.814;2023-06-19T12:23:36;34.50;61.20
4374;DHT22;2201;51.100;6.814;2023-06-19T12:26:03;34.70;60.20
4374;DHT22;2201;51.100;6.814;2023-06-19T12:28:30;34.70;59.50
4374;DHT22;2201;51.100;6.814;2023-06-19T12:30:56;34.80;60.30
4374;DHT22;2201;51.100;6.814;2023-06-19T12:33:24;34.90;59.20
4374;DHT22;2201;51.100;6.814;2023-06-19T12:35:51;35.00;59.50
4374;DHT22;2201;51.100;6.814;2023-06-19T12:38:19;35.00;59.90
4374;DHT22;2201;51.100;6.814;2023-06-19T12:40:45;35.20;59.40
4374;DHT22;2201;51.100;6.814;2023-06-19T12:43:12;35.20;59.00
4374;DHT22;2201;51.100;6.814;2023-06-19T12:45:39;35.00;58.00
4374;DHT22;2201;51.100;6.814;2023-06-19T12:48:06;34.80;59.00
4374;DHT22;2201;51.100;6.814;2023-06-19T12:50:33;34.60;59.70
4374;DHT22;2201;51.100;6.814;2023-06-19T12:53:00;34.40;58.50
4374;DHT22;2201;51.100;6.814;2023-06-19T12:55:29;34.30;60.00
4374;DHT22;2201;51.100;6.814;2023-06-19T12:57:56;34.20;60.60
4374;DHT22;2201;51.100;6.814;2023-06-19T13:00:23;34.00;60.70
4374;DHT22;2201;51.100;6.814;2023-06-19T13:02:49;34.00;61.10
4374;DHT22;2201;51.100;6.814;2023-06-19T13:05:16;34.00;59.70
4374;DHT22;2201;51.100;6.814;2023-06-19T13:07:43;34.10;60.50
4374;DHT22;2201;51.100;6.814;2023-06-19T13:10:10;34.30;60.50
4374;DHT22;2201;51.100;6.814;2023-06-19T13:12:38;34.60;60.50
4374;DHT22;2201;51.100;6.814;2023-06-19T13:15:06;34.70;59.10
4374;DHT22;2201;51.100;6.814;2023-06-19T13:17:33;34.80;59.50
4374;DHT22;2201;51.100;6.814;2023-06-19T13:20:00;35.00;58.40
4374;DHT22;2201;51.100;6.814;2023-06-19T13:22:27;35.00;58.20
4374;DHT22;2201;51.100;6.814;2023-06-19T13:24:54;34.90;59.10
4374;DHT22;2201;51.100;6.814;2023-06-19T13:27:20;34.70;59.00
4374;DHT22;2201;51.100;6.814;2023-06-19T13:29:48;34.70;59.80
4374;DHT22;2201;51.100;6.814;2023-06-19T13:32:15;34.90;59.10
4374;DHT22;2201;51.100;6.814;2023-06-19T13:34:42;35.00;58.90
4374;DHT22;2201;51.100;6.814;2023-06-19T13:37:09;35.10;58.60
4374;DHT22;2201;51.100;6.814;2023-06-19T13:39:36;35.20;58.90
4374;DHT22;2201;51.100;6.814;2023-06-19T13:42:04;35.30;58.90
4374;DHT22;2201;51.100;6.814;2023-06-19T13:44:31;35.30;57.70
4374;DHT22;2201;51.100;6.814;2023-06-19T13:46:59;35.30;58.30
4374;DHT22;2201;51.100;6.814;2023-06-19T13:49:26;35.30;59.40
4374;DHT22;2201;51.100;6.814;2023-06-19T13:51:52;35.40;58.90
4374;DHT22;2201;51.100;6.814;2023-06-19T13:54:19;35.60;59.40
4374;DHT22;2201;51.100;6.814;2023-06-19T13:56:46;35.60;58.40
4374;DHT22;2201;51.100;6.814;2023-06-19T13:59:13;35.80;57.50
4374;DHT22;2201;51.100;6.814;2023-06-19T14:01:40;35.80;57.90
4374;DHT22;2201;51.100;6.814;2023-06-19T14:04:09;35.80;58.20
4374;DHT22;2201;51.100;6.814;2023-06-19T14:06:36;35.80;57.10
4374;DHT22;2201;51.100;6.814;2023-06-19T14:09:03;35.80;57.10
4374;DHT22;2201;51.100;6.814;2023-06-19T14:11:30;35.80;58.00
4374;DHT22;2201;51.100;6.814;2023-06-19T14:13:58;35.90;58.50
4374;DHT22;2201;51.100;6.814;2023-06-19T14:16:25;35.90;57.40
4374;DHT22;2201;51.100;6.814;2023-06-19T14:18:51;35.80;56.80
4374;DHT22;2201;51.100;6.814;2023-06-19T14:21:20;35.80;57.70
4374;DHT22;2201;51.100;6.814;2023-06-19T14:23:47;35.80;57.50
4374;DHT22;2201;51.100;6.814;2023-06-19T14:26:14;35.70;57.90
4374;DHT22;2201;51.100;6.814;2023-06-19T14:28:41;35.80;58.40
4374;DHT22;2201;51.100;6.814;2023-06-19T14:31:07;35.70;57.10
4374;DHT22;2201;51.100;6.814;2023-06-19T14:33:34;35.40;57.10
4374;DHT22;2201;51.100;6.814;2023-06-19T14:36:02;35.20;58.50
4374;DHT22;2201;51.100;6.814;2023-06-19T14:38:31;35.30;57.90
4374;DHT22;2201;51.100;6.814;2023-06-19T14:40:59;35.50;57.30
4374;DHT22;2201;51.100;6.814;2023-06-19T14:43:26;35.60;56.90
4374;DHT22;2201;51.100;6.814;2023-06-19T14:45:53;35.50;58.00
4374;DHT22;2201;51.100;6.814;2023-06-19T14:48:20;35.60;57.70
4374;DHT22;2201;51.100;6.814;2023-06-19T14:50:49;35.60;57.90
4374;DHT22;2201;51.100;6.814;2023-06-19T14:53:16;35.60;56.30
4374;DHT22;2201;51.100;6.814;2023-06-19T14:55:44;35.60;57.00
4374;DHT22;2201;51.100;6.814;2023-06-19T14:58:12;35.60;57.20
4374;DHT22;2201;51.100;6.814;2023-06-19T15:00:39;35.50;56.80
4374;DHT22;2201;51.100;6.814;2023-06-19T15:03:06;35.50;58.00
4374;DHT22;2201;51.100;6.814;2023-06-19T15:05:33;35.60;57.60
4374;DHT22;2201;51.100;6.814;2023-06-19T15:08:00;35.60;57.30
4374;DHT22;2201;51.100;6.814;2023-06-19T15:10:28;35.30;56.80
4374;DHT22;2201;51.100;6.814;2023-06-19T15:12:56;35.20;58.40
4374;DHT22;2201;51.100;6.814;2023-06-19T15:15:23;35.10;57.10
4374;DHT22;2201;51.100;6.814;2023-06-19T15:17:50;34.90;57.70
4374;DHT22;2201;51.100;6.814;2023-06-19T15:20:17;34.90;58.30
4374;DHT22;2201;51.100;6.814;2023-06-19T15:22:45;35.00;57.80
4374;DHT22;2201;51.100;6.814;2023-06-19T15:25:12;35.00;57.80
4374;DHT22;2201;51.100;6.814;2023-06-19T15:27:39;35.20;58.10
4374;DHT22;2201;51.100;6.814;2023-06-19T15:30:09;35.30;57.00
4374;DHT22;2201;51.100;6.814;2023-06-19T15:32:35;35.30;57.40
4374;DHT22;2201;51.100;6.814;2023-06-19T15:35:02;35.30;57.20
4374;DHT22;2201;51.100;6.814;2023-06-19T15:37:29;35.30;56.90
4374;DHT22;2201;51.100;6.814;2023-06-19T15:39:56;35.40;58.10
4374;DHT22;2201;51.100;6.814;2023-06-19T15:42:23;35.20;57.60
4374;DHT22;2201;51.100;6.814;2023-06-19T15:44:50;35.00;57.90
4374;DHT22;2201;51.100;6.814;2023-06-19T15:47:19;34.80;58.50
4374;DHT22;2201;51.100;6.814;2023-06-19T15:49:45;34.70;58.30
4374;DHT22;2201;51.100;6.814;2023-06-19T15:52:12;34.60;58.00
4374;DHT22;2201;51.100;6.814;2023-06-19T15:54:39;34.60;59.00
4374;DHT22;2201;51.100;6.814;2023-06-19T15:57:06;34.60;58.00
4374;DHT22;2201;51.100;6.814;2023-06-19T15:59:33;34.60;58.20
4374;DHT22;2201;51.100;6.814;2023-06-19T16:02:00;34.70;58.20
4374;DHT22;2201;51.100;6.814;2023-06-19T16:04:28;34.70;58.40